Felker Army Air Field
KFAF : now visible

Airfield :











YOU CAN JOIN US ON...

 
LOGIN :

Register | Disclaimer

   EN    FR    IT 

 









Legend :    VFR   Marginal VFR   IFR   Intensive IFR   Very Intensive IFR
Visi :
Ceiling :
>= 8 km
>= 3000ft
5 to 8 km
1000 to 3000 ft
1500m to 5 km
500 to 1000 ft
800 to 1500m
200 to 500 ft
< 800m
< 200 ft
Symbols :   Thunderstorms  Fog  Heavy snow  Heavy precipitations  Wind > 20 kt






- Airport Elevation : 12 ft


KFAF - Felker Army Air Field

CURRENT METAR :
  • 180456Z AUTO 00000KT 10SM CLR 16/13 A3007 RMK AO2 SLP186 T01630128 402640163 $

EXPIRED METARs :
  • 180356Z AUTO 00000KT 10SM CLR 18/13 A3007 RMK AO2 SLP186 T01750130 $
  • 180256Z AUTO 00000KT 10SM CLR 18/13 A3006 RMK AO2 SLP182 T01760131 52013 $

TAF TAF KFAF
Valid from the 18 at 02:00 until the 19 at 08:00 UTC


180200Z 1802/1908 VRB06KT 9999 SKC QNH2992INS
BECMG 1905/1906 19009KT 9999 FEW150 QNH2987INS TX27/1820Z TN13/1810Z LAST NO AMDS AFT 1803 NEXT 2110
KZDC FIR / North America



MET'MAP, your aeronautical weather chart ! - Copyright ORBIFLY December 2007 - Disclaimer

ORBIFLY MET'MAP TEAM :

Programming & Development : Alexandra Zaïnal
Concept & original design : Baudouin d'Aumeries
Assistance for programming : Marc-Olivier Méhu
Technical & hardware support : Manuel Goepfert

Contact : metmap@orbifly.com




SOURCES & CREDITS :

   NOAA       Earth
Advisory